NFTF

Fua'amotu International Airport

Nuku'alofa, Tonga
TAF NFTF 212313Z 2200/2224 23008KT 9999 SCT009 BKN100
Issued Valid From Valid To
Jan-21 @ 23:13 UTC
(an hour ago)
Jan-22 @ 00:00 UTC
(31 minutes ago)
Jan-23 @ 00:00 UTC
(in 23 hours)
Jan-22 @ 00:00 to Jan-23 @ 00:00
TAF NFTF 212313Z 2200/2224 23008KT 9999 SCT009 BKN100
Wind Visibility Clouds
230° at 8 knots 10,000+ meters
  • Scattered at 900' AGL
  • Broken at 10,000' AGL
TAF NFTF 212313Z 2200/2224 23008KT 9999 SCT009 BKN100
Issued Jan-21 @ 23:13 UTC
(an hour ago)
Valid From Jan-22 @ 00:00 UTC
(31 minutes ago)
Valid To Jan-23 @ 00:00 UTC
(in 23 hours)
Jan-22 @ 00:00 - Jan-23 @ 00:00
Wind Visibility
230° at 8 knots 10,000+ meters
Clouds
  • Scattered at 900' AGL
  • Broken at 10,000' AGL